dailymoss.com alexa rank chart, dailymoss.com alexa rank daily changes

dailymoss.com alexa rank chart, dailymoss.com alexa rank daily changes

dailymoss.com
Actual rank:
438 712

RANK HISTORY

Date Rank Diff
2017/12/13 438 712 +2 628
2017/12/12 436 084 -599
2017/12/11 436 683 +2 579
2017/12/10 434 104 -4 724
2017/12/09 438 828 -16 539
2017/12/08 455 367 -313
2017/12/07 455 680 -4 974
2017/12/06 460 654 +628
2017/12/05 460 026 +9 070
2017/12/04 450 956 -3 930
2017/12/03 454 886 -916
2017/12/02 455 802 -1 085
2017/12/01 456 887 +5 492
2017/11/30 451 395 -19 320
2017/11/29 470 715 -5 616
2017/11/28 476 331 +1 308
2017/11/27 475 023 -19 265
2017/11/26 494 288 +336
2017/11/25 493 952 -19 459
2017/11/24 513 411 -12 015
2017/11/23 525 426 -3 029
2017/11/22 528 455 -3 541
2017/11/21 531 996 -9 235
2017/11/20 541 231 -1 503
2017/11/19 542 734 -4 164
2017/11/18 546 898 -12 980
2017/11/17 559 878 -1 334
2017/11/16 561 212 -12 957
2017/11/15 574 169 -14 726
2017/11/14 588 895 +10 381
2017/11/13 578 514 -10 954
2017/11/12 589 468 +2 636
2017/11/11 586 832 -5 546
2017/11/10 592 378 +20 416
2017/11/09 571 962 +6 166
2017/11/08 565 796 +7 053
2017/11/07 558 743 +7 832
2017/11/06 550 911 +10 955
2017/11/05 539 956 +3 665
2017/11/04 536 291 -3 069
2017/11/03 539 360 -6 903
2017/11/02 546 263 -5 961
2017/11/01 552 224 -4 784
2017/10/31 557 008 -29 441
2017/10/30 586 449 +4 559
2017/10/29 581 890 -5 136
2017/10/28 587 026 -6 697
2017/10/27 593 723 +12 819
2017/10/26 580 904 -440
2017/10/25 581 344 +6 369
2017/10/24 574 975 -1 269
2017/10/23 576 244 +2 292
2017/10/22 573 952 +15 338
2017/10/21 558 614 +9 514
2017/10/20 549 100 +9 365
2017/10/19 539 735 +16 479
2017/10/18 523 256 -11 874
2017/10/17 535 130 +11 737
2017/10/16 523 393 +18 769
2017/10/14 504 624

WIDGET FOR YOUR SITE

DOMAINS WITH THE NEAREST RANK

Domain Rank
ricosurf.com.br 438 707
allnigerianfoods.com 438 708
bdsmtubeporn.org 438 709
spacecraft.co.jp 438 710
keyvendor.net 438 711
dailymoss.com 438 712
europa92.hr 438 713
brarab28.fr 438 714
parionsesport.fr 438 715
txbands.com 438 716
dogma.su 438 717

DOMAINS WITH THE NEAREST RANK BY TLD .com

Domain Rank
51dangpu.com 438 703
tool-fitness.com 438 704
epicorhcm.com 438 705
sellbe.com 438 706
allnigerianfoods.com 438 708
dailymoss.com 438 712
txbands.com 438 716
warewithal.com 438 718
ditingai.com 438 721
tasisat.com 438 727
zinntikumugai.com 438 728